Time;durP1;ratioP1;P1;durP2;ratioP2;P2;SDS_P1;SDS_P2;PMS_P1;PMS_P2;Temp;Humidity;BMP_temperature;BMP_pressure;BME280_temperature;BME280_humidity;BME280_pressure;Samples;Min_cycle;Max_cycle;Signal;HPM_P1;HPM_P2
2022/11/30 00:01:14;;;;;;;3.42;2.20;;;6.30;99.90;;;;;;5036584;28;20046;-71
2022/11/30 00:03:40;;;;;;;4.18;1.60;;;6.30;99.90;;;;;;5036432;28;20025;-66
2022/11/30 00:06:09;;;;;;;5.80;2.80;;;6.20;99.90;;;;;;5035036;28;20029;-65
2022/11/30 00:08:35;;;;;;;3.60;2.20;;;6.20;99.90;;;;;;5035262;28;20401;-66
2022/11/30 00:11:07;;;;;;;5.00;2.55;;;6.30;99.90;;;;;;5036679;28;20493;-66
2022/11/30 00:13:33;;;;;;;10.55;2.90;;;6.30;99.90;;;;;;5036496;28;20037;-66
2022/11/30 00:16:00;;;;;;;6.68;2.38;;;6.30;99.90;;;;;;5036303;28;20568;-66
2022/11/30 00:18:26;;;;;;;4.78;2.00;;;6.30;99.90;;;;;;5036574;28;20438;-66
2022/11/30 00:20:51;;;;;;;3.58;1.70;;;6.20;99.90;;;;;;5036301;28;20132;-67
2022/11/30 00:23:17;;;;;;;3.78;1.92;;;6.20;99.90;;;;;;5036421;28;20064;-66
2022/11/30 00:25:43;;;;;;;4.57;1.83;;;6.20;99.90;;;;;;5036137;28;20037;-66
2022/11/30 00:28:09;;;;;;;4.90;2.42;;;6.10;99.90;;;;;;5035941;28;20375;-66
2022/11/30 00:30:34;;;;;;;5.28;2.78;;;6.10;99.90;;;;;;5035895;28;20041;-75
2022/11/30 00:33:00;;;;;;;7.93;2.97;;;6.20;99.90;;;;;;5036173;28;20030;-70
2022/11/30 00:35:26;;;;;;;4.32;2.40;;;6.20;99.90;;;;;;5036105;28;20128;-66
2022/11/30 00:37:51;;;;;;;4.85;2.38;;;6.20;99.90;;;;;;5036037;28;20084;-67
2022/11/30 00:40:17;;;;;;;4.15;2.67;;;6.20;99.90;;;;;;5035709;28;20049;-76
2022/11/30 00:42:43;;;;;;;5.07;2.92;;;6.30;99.90;;;;;;5035684;28;20045;-67
2022/11/30 00:45:09;;;;;;;3.40;2.25;;;6.20;99.90;;;;;;5035608;28;20451;-66
2022/11/30 00:47:35;;;;;;;4.45;2.85;;;6.30;99.90;;;;;;5035799;28;20029;-66
2022/11/30 00:50:02;;;;;;;4.78;2.90;;;6.30;99.90;;;;;;5036060;28;20038;-66
2022/11/30 00:52:29;;;;;;;8.10;2.83;;;6.30;99.90;;;;;;5035756;28;20639;-66
2022/11/30 00:54:55;;;;;;;4.72;2.85;;;6.30;99.90;;;;;;5035881;28;20128;-68
2022/11/30 00:57:21;;;;;;;3.83;2.65;;;6.30;99.90;;;;;;5026483;28;20099;-67
2022/11/30 00:59:47;;;;;;;4.68;3.03;;;6.30;99.90;;;;;;5015987;28;20133;-66
2022/11/30 01:02:13;;;;;;;4.95;2.78;;;6.30;99.90;;;;;;5015267;28;20029;-74
2022/11/30 01:04:38;;;;;;;7.25;3.42;;;6.30;99.90;;;;;;5015758;28;20034;-71
2022/11/30 01:07:04;;;;;;;7.65;3.83;;;6.30;99.90;;;;;;5015583;28;20116;-70
2022/11/30 01:09:30;;;;;;;7.35;3.25;;;6.30;99.90;;;;;;5015541;28;20080;-73
2022/11/30 01:11:56;;;;;;;9.55;3.90;;;6.30;99.90;;;;;;5015398;28;20041;-65
2022/11/30 01:14:21;;;;;;;5.78;3.40;;;6.30;99.90;;;;;;5015315;28;20053;-66
2022/11/30 01:16:47;;;;;;;10.80;3.90;;;6.30;99.90;;;;;;5015386;28;20050;-76
2022/11/30 01:19:13;;;;;;;7.53;3.50;;;6.20;99.90;;;;;;5015270;28;20049;-74
2022/11/30 01:21:38;;;;;;;6.85;3.38;;;6.30;99.90;;;;;;5015418;28;20042;-66
2022/11/30 01:24:05;;;;;;;6.28;3.28;;;6.20;99.90;;;;;;5015480;28;20397;-66
2022/11/30 01:26:30;;;;;;;12.40;4.72;;;6.30;99.90;;;;;;5015325;28;20405;-66
2022/11/30 01:28:56;;;;;;;7.63;4.30;;;6.20;99.90;;;;;;5015273;28;20046;-66
2022/11/30 01:31:23;;;;;;;8.52;4.32;;;6.20;99.90;;;;;;5014119;28;20037;-65
2022/11/30 01:33:54;;;;;;;10.75;5.22;;;6.20;99.90;;;;;;5015237;28;20172;-66
2022/11/30 01:36:21;;;;;;;;;;;6.20;99.90;;;;;;5015708;28;20061;-66
2022/11/30 01:38:51;;;;;;;8.60;4.88;;;6.20;99.90;;;;;;5015299;28;19960;-66
2022/11/30 01:41:22;;;;;;;12.57;5.30;;;6.10;99.90;;;;;;5015080;28;20045;-65
2022/11/30 01:43:54;;;;;;;11.32;5.50;;;6.00;99.90;;;;;;5015010;28;20807;-66
2022/11/30 01:46:54;;;;;;;11.80;5.15;;;6.10;99.90;;;;;;5020376;28;20069;-65
2022/11/30 01:49:27;;;;;;;13.57;5.10;;;6.00;99.90;;;;;;5020184;28;20034;-67
2022/11/30 01:52:14;;;;;;;7.45;4.63;;;6.00;99.90;;;;;;5034757;28;20041;-66
2022/11/30 01:54:50;;;;;;;9.50;4.60;;;6.00;99.90;;;;;;5030996;28;20401;-66
2022/11/30 01:57:37;;;;;;;11.60;5.07;;;6.10;99.90;;;;;;5034411;28;20059;-72
2022/11/30 02:00:07;;;;;;;10.68;4.65;;;6.10;99.90;;;;;;5034278;28;20037;-65
2022/11/30 02:02:39;;;;;;;8.90;4.70;;;6.10;99.90;;;;;;5034458;28;20547;-66
2022/11/30 02:05:06;;;;;;;10.30;4.32;;;6.10;99.90;;;;;;5034498;28;20090;-65
2022/11/30 02:07:32;;;;;;;6.45;3.25;;;6.10;99.90;;;;;;5034335;28;20511;-66
2022/11/30 02:09:58;;;;;;;9.63;4.78;;;6.10;99.90;;;;;;5032937;28;20128;-66
2022/11/30 02:12:40;;;;;;;11.05;4.18;;;6.20;99.90;;;;;;5034204;28;20117;-73
2022/11/30 02:15:15;;;;;;;11.75;4.95;;;6.10;99.90;;;;;;5034175;28;20049;-76
2022/11/30 02:18:04;;;;;;;11.57;4.95;;;6.10;99.90;;;;;;5018257;28;20034;-66
2022/11/30 02:20:55;;;;;;;11.65;4.50;;;6.10;99.90;;;;;;5014494;28;20065;-66
2022/11/30 02:23:42;;;;;;;10.23;5.05;;;6.10;99.90;;;;;;5011920;28;20037;-66
2022/11/30 02:26:29;;;;;;;9.30;4.85;;;6.10;99.90;;;;;;5013221;28;20034;-66
2022/11/30 02:29:20;;;;;;;13.10;4.97;;;6.20;99.90;;;;;;5013039;28;20065;-66
2022/11/30 02:31:56;;;;;;;10.63;5.60;;;6.10;99.90;;;;;;5014277;28;20038;-66
2022/11/30 02:34:25;;;;;;;10.93;5.13;;;6.10;99.90;;;;;;5014375;28;20030;-66
2022/11/30 02:36:51;;;;;;;6.28;4.10;;;6.10;99.90;;;;;;5014253;28;20059;-66
2022/11/30 02:39:20;;;;;;;8.90;5.00;;;6.10;99.90;;;;;;5014162;28;20120;-67
2022/11/30 02:41:46;;;;;;;8.95;4.72;;;6.10;99.90;;;;;;5012782;28;20572;-66
2022/11/30 02:44:12;;;;;;;9.00;4.35;;;6.20;99.90;;;;;;5014218;28;20124;-65
2022/11/30 02:46:55;;;;;;;10.52;4.30;;;6.20;99.90;;;;;;5014102;28;20568;-67
2022/11/30 02:49:31;;;;;;;9.60;5.32;;;6.20;99.90;;;;;;5013895;28;20038;-66
2022/11/30 02:51:58;;;;;;;12.38;4.65;;;6.20;99.90;;;;;;5010274;28;20049;-66
2022/11/30 02:54:24;;;;;;;9.27;4.25;;;6.10;99.90;;;;;;5020486;28;20045;-65
2022/11/30 02:56:50;;;;;;;11.80;5.32;;;6.20;99.90;;;;;;5032525;28;20071;-66
2022/11/30 02:59:16;;;;;;;8.30;4.50;;;6.20;99.90;;;;;;5033916;28;20124;-66
2022/11/30 03:01:42;;;;;;;8.82;4.55;;;6.20;99.90;;;;;;5033879;28;20041;-65
2022/11/30 03:04:08;;;;;;;10.70;5.25;;;6.20;99.90;;;;;;5033776;28;20033;-66
2022/11/30 03:06:33;;;;;;;12.27;5.03;;;6.20;99.90;;;;;;5033758;28;20068;-66
2022/11/30 03:08:59;;;;;;;12.85;4.80;;;6.20;99.90;;;;;;5032380;28;20080;-66
2022/11/30 03:11:25;;;;;;;7.78;4.38;;;6.20;99.90;;;;;;5033733;28;20040;-65
2022/11/30 03:13:51;;;;;;;7.68;4.47;;;6.20;99.90;;;;;;5033551;28;20104;-66
2022/11/30 03:16:16;;;;;;;10.90;4.10;;;6.20;99.90;;;;;;5033528;28;20127;-77
2022/11/30 03:18:42;;;;;;;8.65;4.55;;;6.20;99.90;;;;;;5033371;28;20385;-66
2022/11/30 03:21:10;;;;;;;9.25;4.72;;;6.20;99.90;;;;;;5033458;28;20124;-65
2022/11/30 03:23:37;;;;;;;10.57;5.03;;;6.20;99.90;;;;;;5033496;28;20041;-66
2022/11/30 03:26:04;;;;;;;10.45;5.57;;;6.20;99.90;;;;;;5036308;28;20041;-66
2022/11/30 03:28:30;;;;;;;10.57;4.90;;;6.20;99.90;;;;;;5037403;28;20095;-66
2022/11/30 03:30:56;;;;;;;8.55;4.72;;;6.20;99.90;;;;;;5037503;28;20496;-66
2022/11/30 03:33:23;;;;;;;10.25;5.05;;;6.20;99.90;;;;;;5037285;28;20034;-66
2022/11/30 03:36:00;;;;;;;7.85;5.18;;;6.20;99.90;;;;;;5035566;28;20049;-72
2022/11/30 03:38:25;;;;;;;12.65;5.38;;;6.30;99.90;;;;;;5037235;28;20037;-66
2022/11/30 03:41:02;;;;;;;7.65;4.38;;;6.30;99.90;;;;;;5037240;28;20519;-65
2022/11/30 03:43:28;;;;;;;6.72;4.03;;;6.20;99.90;;;;;;5036937;28;20449;-66
2022/11/30 03:45:54;;;;;;;7.15;4.05;;;6.30;99.90;;;;;;5036724;28;20124;-66
2022/11/30 03:48:20;;;;;;;9.40;4.28;;;6.30;99.90;;;;;;5036654;28;20045;-66
2022/11/30 03:50:48;;;;;;;7.47;4.45;;;6.30;99.90;;;;;;5036758;28;20041;-65
2022/11/30 03:53:16;;;;;;;8.88;3.97;;;6.20;99.90;;;;;;5036833;28;20526;-66
2022/11/30 03:55:42;;;;;;;11.63;4.68;;;6.20;99.90;;;;;;5036892;28;20132;-66
2022/11/30 03:58:08;;;;;;;10.00;5.05;;;6.20;99.90;;;;;;5036884;28;20057;-68
2022/11/30 04:00:34;;;;;;;12.23;4.97;;;6.20;99.90;;;;;;5036750;28;20114;-66
2022/11/30 04:03:00;;;;;;;8.52;4.05;;;6.20;99.90;;;;;;5035262;28;20051;-69
2022/11/30 04:05:25;;;;;;;9.70;4.72;;;6.20;99.90;;;;;;5036674;28;20389;-65
2022/11/30 04:07:51;;;;;;;8.13;4.80;;;6.20;99.90;;;;;;5036706;28;20092;-66
2022/11/30 04:10:17;;;;;;;11.65;5.20;;;6.20;99.90;;;;;;5036743;28;20029;-66
2022/11/30 04:12:43;;;;;;;12.02;5.40;;;6.20;99.90;;;;;;5036557;28;20060;-66
2022/11/30 04:15:09;;;;;;;9.85;4.90;;;6.20;99.90;;;;;;5036429;28;20447;-66
2022/11/30 04:17:35;;;;;;;9.88;5.10;;;6.20;99.90;;;;;;5036172;28;20489;-66
2022/11/30 04:20:01;;;;;;;14.45;6.00;;;6.20;99.90;;;;;;5036529;28;20137;-66
2022/11/30 04:22:26;;;;;;;11.82;5.35;;;6.20;99.90;;;;;;5036519;28;20045;-66
2022/11/30 04:24:52;;;;;;;14.60;5.40;;;6.20;99.90;;;;;;5036446;28;20554;-66
2022/11/30 04:27:18;;;;;;;10.07;5.43;;;6.20;99.90;;;;;;5036376;28;20041;-66
2022/11/30 04:29:43;;;;;;;8.25;4.82;;;6.20;99.90;;;;;;5036361;28;20404;-66
2022/11/30 04:32:09;;;;;;;8.82;4.28;;;6.20;99.90;;;;;;5034923;28;20060;-66
2022/11/30 04:34:35;;;;;;;7.95;5.18;;;6.20;99.90;;;;;;5036050;28;20029;-66
2022/11/30 04:37:01;;;;;;;10.30;4.72;;;6.20;99.90;;;;;;5035021;28;20037;-72
2022/11/30 04:39:26;;;;;;;12.43;4.90;;;6.20;99.90;;;;;;5036398;28;20022;-66
2022/11/30 04:41:52;;;;;;;10.90;5.95;;;6.20;99.90;;;;;;5036185;28;20076;-66
2022/11/30 04:44:18;;;;;;;11.70;5.10;;;6.10;99.90;;;;;;5035990;28;20057;-66
2022/11/30 04:46:44;;;;;;;10.27;5.78;;;6.10;99.90;;;;;;5035746;28;20136;-66
2022/11/30 04:49:10;;;;;;;10.07;5.40;;;6.10;99.90;;;;;;5035943;28;20084;-67
2022/11/30 04:51:35;;;;;;;9.80;5.28;;;6.10;99.90;;;;;;5035880;28;20440;-67
2022/11/30 04:54:01;;;;;;;10.70;5.57;;;6.10;99.90;;;;;;5035703;28;20083;-66
2022/11/30 04:56:27;;;;;;;8.63;5.15;;;6.10;99.90;;;;;;5026375;28;20073;-66
2022/11/30 04:58:52;;;;;;;11.52;5.63;;;6.10;99.90;;;;;;5015752;28;20065;-66
2022/11/30 05:01:18;;;;;;;11.57;5.20;;;6.20;99.90;;;;;;5015629;28;20038;-68
2022/11/30 05:03:44;;;;;;;9.90;5.22;;;6.50;99.90;;;;;;5015860;28;20404;-76
2022/11/30 05:06:09;;;;;;;12.30;5.88;;;6.20;99.90;;;;;;5015776;28;20049;-67
2022/11/30 05:08:35;;;;;;;12.07;5.93;;;6.00;99.90;;;;;;5015644;28;20050;-66
2022/11/30 05:11:01;;;;;;;10.18;6.38;;;6.30;99.90;;;;;;5018358;28;20477;-66
2022/11/30 05:13:27;;;;;;;8.35;5.85;;;6.20;99.90;;;;;;5015607;28;20481;-70
2022/11/30 05:15:52;;;;;;;11.75;6.38;;;6.20;99.90;;;;;;5020230;28;20408;-65
2022/11/30 05:18:18;;;;;;;10.63;5.72;;;6.20;99.90;;;;;;5035488;28;20524;-67
2022/11/30 05:20:51;;;;;;;13.60;6.60;;;6.20;99.90;;;;;;5033823;28;20041;-66
2022/11/30 05:23:18;;;;;;;12.18;6.20;;;6.20;99.90;;;;;;5035182;28;20048;-65
2022/11/30 05:25:44;;;;;;;12.07;6.88;;;6.20;99.90;;;;;;5034782;28;20045;-70
2022/11/30 05:28:11;;;;;;;8.70;5.57;;;6.10;99.90;;;;;;5035086;28;20117;-66
2022/11/30 05:30:38;;;;;;;9.20;5.22;;;6.00;99.90;;;;;;5035105;28;20132;-66
2022/11/30 05:33:04;;;;;;;9.70;5.68;;;6.00;99.90;;;;;;5034977;28;20477;-66
2022/11/30 05:35:30;;;;;;;9.98;5.32;;;6.00;99.90;;;;;;5034874;28;20049;-65
2022/11/30 05:37:56;;;;;;;7.72;4.10;;;6.00;99.90;;;;;;5034928;28;20047;-66
2022/11/30 05:40:21;;;;;;;6.55;4.43;;;6.20;99.90;;;;;;5035056;28;20045;-66
2022/11/30 05:42:53;;;;;;;6.72;3.60;;;6.20;99.90;;;;;;5034735;28;20025;-65
2022/11/30 05:45:18;;;;;;;7.22;4.10;;;6.10;99.90;;;;;;5034590;28;20095;-66
2022/11/30 05:47:44;;;;;;;8.13;3.83;;;6.10;99.90;;;;;;5034239;28;20120;-66
2022/11/30 05:50:10;;;;;;;7.10;3.65;;;6.00;99.90;;;;;;5033405;28;20045;-66
2022/11/30 05:52:36;;;;;;;8.13;3.83;;;6.00;99.90;;;;;;5034514;28;20475;-65
2022/11/30 05:55:01;;;;;;;5.93;3.97;;;6.10;99.90;;;;;;5034621;28;20408;-65
2022/11/30 05:57:27;;;;;;;12.05;4.25;;;6.10;99.90;;;;;;5034368;28;20037;-66
2022/11/30 05:59:53;;;;;;;4.95;3.85;;;6.10;99.90;;;;;;5033304;28;20156;-66
2022/11/30 06:02:18;;;;;;;7.10;3.92;;;6.10;99.90;;;;;;5034620;28;20037;-76
2022/11/30 06:04:44;;;;;;;5.97;4.03;;;6.10;99.90;;;;;;5034359;28;20037;-65
2022/11/30 06:07:10;;;;;;;7.60;4.20;;;6.10;99.90;;;;;;5034366;28;20369;-65
2022/11/30 06:09:38;;;;;;;9.05;4.60;;;6.10;99.90;;;;;;5034329;28;20382;-65
2022/11/30 06:12:04;;;;;;;8.48;5.75;;;6.20;99.90;;;;;;5032983;28;20049;-65
2022/11/30 06:14:29;;;;;;;11.45;5.70;;;6.10;99.90;;;;;;5034035;28;20124;-75
2022/11/30 06:16:55;;;;;;;11.07;5.90;;;6.20;99.90;;;;;;5023693;28;20136;-66
2022/11/30 06:19:21;;;;;;;11.20;5.78;;;6.20;99.90;;;;;;5014420;28;20513;-66
2022/11/30 06:21:46;;;;;;;8.57;5.63;;;6.20;99.90;;;;;;5027888;28;20124;-65
2022/11/30 06:24:12;;;;;;;12.38;6.18;;;6.20;99.90;;;;;;5034218;28;20124;-70
2022/11/30 06:26:38;;;;;;;9.25;5.72;;;6.20;99.90;;;;;;5032332;28;20068;-66
2022/11/30 06:29:04;;;;;;;10.18;5.75;;;6.10;99.90;;;;;;5032034;28;20168;-66
2022/11/30 06:31:30;;;;;;;8.40;6.05;;;6.20;99.90;;;;;;5032397;28;20112;-66
2022/11/30 06:33:57;;;;;;;10.70;5.57;;;6.10;99.90;;;;;;5032322;28;20060;-66
2022/11/30 06:36:23;;;;;;;10.52;5.53;;;6.10;99.90;;;;;;5030967;28;20064;-65
2022/11/30 06:38:50;;;;;;;9.40;5.75;;;6.10;99.90;;;;;;5032990;28;20040;-66
2022/11/30 06:41:16;;;;;;;7.45;5.32;;;6.00;99.90;;;;;;5033277;28;20045;-70
2022/11/30 06:43:41;;;;;;;8.48;5.20;;;6.00;99.90;;;;;;5033797;28;20029;-66
2022/11/30 06:46:07;;;;;;;8.15;5.43;;;6.00;99.90;;;;;;5032259;28;20080;-66
2022/11/30 06:48:34;;;;;;;9.60;5.30;;;6.00;99.90;;;;;;5031830;28;20053;-66
2022/11/30 06:51:03;;;;;;;10.48;5.30;;;6.00;99.90;;;;;;5026683;28;20068;-66
2022/11/30 06:53:29;;;;;;;7.93;4.35;;;6.00;99.90;;;;;;5023975;28;20477;-66
2022/11/30 06:55:55;;;;;;;7.32;3.83;;;6.00;99.90;;;;;;5014356;28;20125;-67
2022/11/30 06:58:20;;;;;;;7.03;3.40;;;6.10;99.90;;;;;;5023689;28;20044;-67
2022/11/30 07:00:46;;;;;;;6.85;4.20;;;6.10;99.90;;;;;;5023210;28;20038;-66
2022/11/30 07:03:12;;;;;;;6.30;4.43;;;6.00;99.90;;;;;;5025120;28;20128;-67
2022/11/30 07:05:44;;;;;;;8.85;5.03;;;6.00;99.90;;;;;;5030185;28;20107;-67
2022/11/30 07:08:14;;;;;;;7.32;4.72;;;6.00;99.90;;;;;;5022495;28;20022;-67
2022/11/30 07:10:41;;;;;;;10.57;5.93;;;6.00;99.90;;;;;;5017715;28;20096;-66
2022/11/30 07:13:12;;;;;;;10.07;6.18;;;6.00;99.90;;;;;;5018622;28;20033;-67
2022/11/30 07:15:39;;;;;;;9.65;6.13;;;6.00;99.90;;;;;;5032140;28;20076;-66
2022/11/30 07:18:05;;;;;;;12.13;6.47;;;5.90;99.90;;;;;;5034851;28;20044;-66
2022/11/30 07:20:30;;;;;;;12.85;6.68;;;5.90;99.90;;;;;;5036833;28;20045;-66
2022/11/30 07:22:56;;;;;;;10.65;6.03;;;5.90;99.90;;;;;;5037401;28;20037;-66
2022/11/30 07:28:07;;;;;;;11.88;6.57;;;5.90;99.90;;;;;;5037279;28;20045;-72
2022/11/30 07:30:33;;;;;;;9.63;5.93;;;5.80;99.90;;;;;;5036362;28;20041;-66
2022/11/30 07:32:59;;;;;;;9.63;5.88;;;5.90;99.90;;;;;;5034439;28;20050;-66
2022/11/30 07:35:25;;;;;;;8.10;5.38;;;5.90;99.90;;;;;;5035853;28;20056;-66
2022/11/30 07:37:51;;;;;;;8.98;6.05;;;5.90;99.90;;;;;;5035877;28;20041;-67
2022/11/30 07:40:16;;;;;;;11.65;5.88;;;5.90;99.90;;;;;;5034413;28;20033;-66
2022/11/30 07:42:42;;;;;;;9.02;5.53;;;5.90;99.90;;;;;;5035668;28;20370;-67
2022/11/30 07:45:08;;;;;;;8.80;5.28;;;6.00;99.90;;;;;;5036137;28;20041;-72
2022/11/30 07:47:35;;;;;;;9.93;6.07;;;6.00;99.90;;;;;;5036990;28;20136;-66
2022/11/30 07:50:00;;;;;;;10.15;5.85;;;6.00;99.90;;;;;;5037073;28;20048;-66
2022/11/30 07:52:26;;;;;;;9.30;5.60;;;6.00;99.90;;;;;;5037091;28;20045;-66
2022/11/30 07:54:52;;;;;;;15.38;7.15;;;6.10;99.90;;;;;;5036661;28;20029;-67
2022/11/30 07:57:18;;;;;;;10.35;6.05;;;6.00;99.90;;;;;;5036678;28;20049;-75
2022/11/30 07:59:43;;;;;;;8.65;4.95;;;6.00;99.90;;;;;;5036758;28;20048;-66
2022/11/30 08:02:09;;;;;;;13.10;5.88;;;6.10;99.90;;;;;;5036688;28;20103;-68
2022/11/30 08:04:35;;;;;;;9.32;5.28;;;6.10;99.90;;;;;;5036359;28;20040;-73
2022/11/30 08:07:01;;;;;;;11.63;5.88;;;6.10;99.90;;;;;;5036603;28;20120;-66
2022/11/30 08:09:27;;;;;;;9.68;5.10;;;6.10;99.90;;;;;;5036683;28;20107;-68
2022/11/30 08:11:52;;;;;;;7.85;4.72;;;6.40;99.90;;;;;;5036442;28;20497;-66
2022/11/30 08:14:18;;;;;;;8.75;5.43;;;6.30;99.90;;;;;;5036459;28;20076;-67
2022/11/30 08:16:44;;;;;;;8.23;5.20;;;6.30;99.90;;;;;;5034875;28;20207;-70
2022/11/30 08:19:09;;;;;;;8.25;4.60;;;6.10;99.90;;;;;;5036095;28;20484;-67
2022/11/30 08:21:36;;;;;;;9.45;4.50;;;6.40;99.90;;;;;;5034753;28;20453;-66
2022/11/30 08:24:02;;;;;;;8.20;5.07;;;6.30;99.90;;;;;;5036328;28;20125;-76
2022/11/30 08:26:31;;;;;;;8.57;5.10;;;6.30;99.90;;;;;;5036369;28;20076;-67
2022/11/30 08:28:58;;;;;;;8.10;5.30;;;6.30;99.90;;;;;;5036381;28;20116;-67
2022/11/30 08:31:34;;;;;;;8.65;4.18;;;6.40;99.90;;;;;;5036338;28;20219;-74
2022/11/30 08:34:09;;;;;;;10.90;4.32;;;6.40;99.90;;;;;;5036411;28;20116;-67
2022/11/30 08:36:35;;;;;;;9.00;4.90;;;6.40;99.90;;;;;;5036167;28;20080;-67
2022/11/30 08:39:03;;;;;;;6.47;4.30;;;6.40;99.90;;;;;;5036313;28;20117;-66
2022/11/30 08:41:29;;;;;;;7.25;4.47;;;6.50;99.90;;;;;;5036259;28;20439;-67
2022/11/30 08:43:55;;;;;;;9.57;5.43;;;6.60;99.90;;;;;;5035982;28;20120;-70
2022/11/30 08:46:23;;;;;;;8.75;4.80;;;6.50;99.90;;;;;;5035604;28;20560;-66
2022/11/30 08:48:49;;;;;;;9.93;5.40;;;6.60;99.90;;;;;;5035975;28;20045;-66
2022/11/30 08:51:17;;;;;;;11.43;4.97;;;6.80;99.90;;;;;;5036063;28;20167;-66
2022/11/30 08:53:43;;;;;;;7.93;4.90;;;7.00;99.90;;;;;;5034569;28;20052;-66
2022/11/30 08:56:20;;;;;;;9.40;4.95;;;7.00;99.90;;;;;;5035648;28;20051;-68
2022/11/30 08:58:46;;;;;;;9.32;5.38;;;6.80;99.90;;;;;;5035633;28;20037;-68
2022/11/30 09:01:18;;;;;;;9.32;5.05;;;6.70;99.90;;;;;;5035701;28;20415;-67
2022/11/30 09:03:45;;;;;;;11.43;5.32;;;6.60;99.90;;;;;;5035632;28;20051;-66
2022/11/30 09:06:19;;;;;;;10.73;6.45;;;6.60;99.90;;;;;;5034644;28;20048;-66
2022/11/30 09:08:47;;;;;;;9.25;5.88;;;6.50;99.90;;;;;;5035462;28;20108;-66
2022/11/30 09:11:20;;;;;;;11.00;5.95;;;6.60;99.90;;;;;;5035546;28;20041;-66
2022/11/30 09:13:47;;;;;;;14.88;6.95;;;6.60;99.90;;;;;;5035522;28;20120;-66
2022/11/30 09:16:14;;;;;;;12.80;7.00;;;6.50;99.90;;;;;;5035487;28;20385;-66
2022/11/30 09:18:40;;;;;;;16.95;7.78;;;6.40;99.90;;;;;;5035169;28;20064;-66
2022/11/30 09:21:15;;;;;;;18.33;8.18;;;6.30;99.90;;;;;;5035203;28;20504;-66
2022/11/30 09:23:41;;;;;;;14.52;7.55;;;6.30;99.90;;;;;;5034580;28;20043;-66
2022/11/30 09:26:10;;;;;;;17.88;8.45;;;6.30;99.90;;;;;;5035392;28;20041;-66
2022/11/30 09:28:37;;;;;;;23.15;10.13;;;6.30;99.90;;;;;;5033898;28;20029;-66
2022/11/30 09:31:06;;;;;;;16.73;8.98;;;6.30;99.90;;;;;;5034952;28;20068;-66
2022/11/30 09:33:33;;;;;;;15.90;9.07;;;6.30;99.90;;;;;;5033634;28;20076;-66
2022/11/30 09:36:05;;;;;;;16.88;9.00;;;6.50;99.90;;;;;;5034878;28;20064;-67
2022/11/30 09:38:31;;;;;;;15.55;8.63;;;6.40;99.90;;;;;;5035032;28;20116;-73
2022/11/30 09:40:59;;;;;;;13.98;8.15;;;6.50;99.90;;;;;;5033808;28;20077;-69
2022/11/30 09:44:01;;;;;;;13.43;7.00;;;6.40;99.90;;;;;;5035031;28;20480;-66
2022/11/30 09:46:46;;;;;;;13.60;7.35;;;6.40;99.90;;;;;;5028282;28;20532;-72
2022/11/30 09:49:26;;;;;;;13.57;7.75;;;6.50;99.90;;;;;;5033783;28;20082;-71
2022/11/30 09:51:57;;;;;;;13.32;7.03;;;6.50;99.90;;;;;;5034917;28;20037;-70
2022/11/30 09:54:39;;;;;;;15.20;6.75;;;6.60;99.90;;;;;;5034802;28;20045;-66
2022/11/30 09:57:49;;;;;;;14.70;7.47;;;6.60;99.90;;;;;;5034658;28;20084;-66
2022/11/30 10:00:20;;;;;;;13.70;6.63;;;6.60;99.90;;;;;;5031537;28;20041;-66
2022/11/30 10:02:47;;;;;;;;;;;6.60;99.90;;;;;;5030909;28;20128;-67
2022/11/30 10:05:21;;;;;;;12.30;5.20;;;6.70;99.90;;;;;;5034698;28;19913;-65
2022/11/30 10:08:40;;;;;;;12.05;6.30;;;6.70;99.90;;;;;;5034535;28;20041;-70
2022/11/30 10:11:18;;;;;;;11.27;6.15;;;6.70;99.90;;;;;;4976230;28;20037;-66
2022/11/30 10:13:58;;;;;;;12.45;6.15;;;6.70;99.90;;;;;;5033984;28;20555;-66
2022/11/30 10:17:03;;;;;;;15.02;6.97;;;6.70;99.90;;;;;;5022321;28;20053;-66
2022/11/30 10:19:41;;;;;;;11.18;6.38;;;6.60;99.90;;;;;;5013720;28;20391;-66
2022/11/30 10:22:40;;;;;;;10.77;6.25;;;6.70;99.90;;;;;;5013976;28;20042;-66
2022/11/30 10:25:22;;;;;;;12.55;6.55;;;6.70;99.90;;;;;;5013749;28;20054;-66
2022/11/30 10:27:52;;;;;;;12.68;6.07;;;6.60;99.90;;;;;;5014386;28;20381;-66
2022/11/30 10:30:18;;;;;;;12.95;7.25;;;6.70;99.90;;;;;;5014286;28;20046;-66
2022/11/30 10:32:47;;;;;;;14.82;6.68;;;6.70;99.90;;;;;;5014290;28;20046;-66
2022/11/30 10:35:39;;;;;;;10.10;6.10;;;6.70;99.90;;;;;;5013289;28;20042;-67
2022/11/30 10:38:26;;;;;;;12.52;6.78;;;6.70;99.90;;;;;;5014208;28;20120;-66
2022/11/30 10:40:55;;;;;;;11.68;6.63;;;6.80;99.90;;;;;;5013055;28;20485;-66
2022/11/30 10:43:32;;;;;;;11.95;6.22;;;6.80;99.90;;;;;;5013869;28;20076;-66
2022/11/30 10:45:59;;;;;;;15.02;7.40;;;6.80;99.90;;;;;;5013678;28;20049;-65
2022/11/30 10:48:39;;;;;;;11.68;6.85;;;6.90;99.90;;;;;;5013979;28;20029;-66
2022/11/30 10:51:06;;;;;;;14.93;6.72;;;6.80;99.90;;;;;;5014144;28;20115;-69
2022/11/30 10:53:33;;;;;;;15.82;7.97;;;6.90;99.90;;;;;;5014134;28;20207;-67
2022/11/30 10:56:14;;;;;;;18.55;8.27;;;6.80;99.90;;;;;;5014076;28;20057;-65
2022/11/30 10:58:52;;;;;;;;;;;6.70;99.90;;;;;;5014638;28;20481;-65
2022/11/30 11:01:36;;;;;;;18.42;8.07;;;6.70;99.90;;;;;;5009288;28;19909;-66
2022/11/30 11:04:17;;;;;;;12.88;7.50;;;6.70;99.90;;;;;;5030233;28;20041;-66
2022/11/30 11:06:47;;;;;;;16.10;8.57;;;6.80;99.90;;;;;;5033411;28;20135;-66
2022/11/30 11:09:37;;;;;;;13.73;7.32;;;6.80;99.90;;;;;;5033669;28;20052;-66
2022/11/30 11:12:27;;;;;;;16.35;8.52;;;6.80;99.90;;;;;;5033462;28;20034;-66
2022/11/30 11:15:18;;;;;;;17.15;7.95;;;6.90;99.90;;;;;;5033523;28;20064;-67
2022/11/30 11:17:45;;;;;;;15.02;7.25;;;7.00;99.90;;;;;;5033487;28;20060;-67
2022/11/30 11:20:31;;;;;;;12.57;8.02;;;7.00;99.90;;;;;;5033921;28;20044;-69
2022/11/30 11:22:57;;;;;;;18.40;7.68;;;7.00;99.90;;;;;;5033704;28;20125;-67
2022/11/30 11:25:35;;;;;;;13.57;7.70;;;7.00;99.90;;;;;;5028096;28;20045;-67
2022/11/30 11:28:12;;;;;;;14.30;7.97;;;7.00;99.90;;;;;;5029793;28;20392;-67
2022/11/30 11:30:38;;;;;;;19.23;8.00;;;7.00;99.90;;;;;;5032780;28;20377;-67
2022/11/30 11:33:19;;;;;;;12.25;6.60;;;7.20;99.90;;;;;;5033150;28;20041;-67
2022/11/30 11:35:46;;;;;;;13.13;6.95;;;7.20;99.90;;;;;;5033580;28;20037;-67
2022/11/30 11:38:18;;;;;;;14.48;6.75;;;7.40;99.90;;;;;;5032267;28;20064;-67
2022/11/30 11:40:56;;;;;;;11.63;6.13;;;7.30;99.90;;;;;;5032068;28;20075;-68
2022/11/30 11:43:24;;;;;;;11.90;6.07;;;7.30;99.90;;;;;;5033270;28;20103;-68
2022/11/30 11:45:56;;;;;;;10.60;6.00;;;7.30;99.90;;;;;;5034290;28;20033;-68
2022/11/30 11:48:40;;;;;;;10.98;6.25;;;7.30;99.90;;;;;;5018244;28;20049;-68
2022/11/30 11:51:12;;;;;;;13.73;7.53;;;7.30;99.90;;;;;;5017552;28;20125;-71
2022/11/30 11:53:53;;;;;;;12.57;6.45;;;7.30;99.90;;;;;;5014226;28;20052;-70
2022/11/30 11:56:33;;;;;;;15.98;7.35;;;7.30;99.90;;;;;;5013641;28;20595;-67
2022/11/30 11:59:32;;;;;;;15.05;7.30;;;7.30;99.90;;;;;;5014811;28;20502;-67
2022/11/30 12:02:21;;;;;;;13.20;7.72;;;7.40;99.90;;;;;;5013994;28;20049;-70
2022/11/30 12:04:49;;;;;;;17.20;8.52;;;7.40;99.90;;;;;;5010982;28;20042;-66
2022/11/30 12:07:56;;;;;;;14.48;8.18;;;7.40;99.90;;;;;;5032492;28;20049;-71
2022/11/30 12:10:37;;;;;;;14.63;7.80;;;7.30;99.90;;;;;;5013389;28;20041;-68
2022/11/30 12:13:16;;;;;;;16.70;7.50;;;7.30;99.90;;;;;;5015348;28;20037;-71
2022/11/30 12:16:06;;;;;;;18.08;8.23;;;7.20;99.90;;;;;;5025497;28;20049;-66
2022/11/30 12:19:02;;;;;;;13.23;7.45;;;7.20;99.90;;;;;;5033371;28;20041;-70
2022/11/30 12:21:55;;;;;;;17.10;7.72;;;7.20;99.90;;;;;;5034341;28;20571;-69
2022/11/30 12:24:29;;;;;;;13.65;7.13;;;7.10;99.90;;;;;;5034245;28;20041;-68
2022/11/30 12:27:14;;;;;;;16.88;7.45;;;7.20;99.90;;;;;;5033658;28;20492;-68
2022/11/30 12:29:51;;;;;;;14.65;7.22;;;7.30;99.90;;;;;;5033690;28;20064;-70
2022/11/30 12:32:41;;;;;;;14.13;6.82;;;7.30;99.90;;;;;;5033302;28;20040;-67
2022/11/30 12:35:41;;;;;;;15.55;8.23;;;7.40;99.90;;;;;;5034004;28;20037;-67
2022/11/30 12:39:08;;;;;;;12.43;7.05;;;7.40;99.90;;;;;;5033738;28;20489;-69
2022/11/30 12:41:46;;;;;;;13.82;7.90;;;7.40;99.90;;;;;;5000296;28;20068;-71
2022/11/30 12:44:31;;;;;;;12.63;7.80;;;7.40;99.90;;;;;;5033643;28;20049;-68
2022/11/30 12:47:17;;;;;;;15.40;7.07;;;7.40;99.90;;;;;;5032610;28;20076;-70
2022/11/30 12:50:18;;;;;;;12.38;7.07;;;7.50;99.90;;;;;;5033679;28;20037;-70
2022/11/30 12:52:52;;;;;;;;;;;7.40;99.90;;;;;;5034202;28;20045;-71
2022/11/30 12:55:17;;;;;;;16.23;8.18;;;7.40;99.90;;;;;;5033720;28;19920;-68
2022/11/30 12:58:17;;;;;;;15.95;8.32;;;7.40;99.90;;;;;;5031866;28;20045;-66
2022/11/30 13:01:01;;;;;;;13.52;7.80;;;7.30;99.90;;;;;;5012023;28;20073;-71
2022/11/30 13:03:42;;;;;;;14.85;7.63;;;7.30;99.90;;;;;;5011834;28;20034;-71
2022/11/30 13:06:22;;;;;;;14.07;8.40;;;7.30;99.90;;;;;;5012558;28;20100;-70
2022/11/30 13:08:54;;;;;;;18.45;8.30;;;7.30;99.90;;;;;;5011838;28;20464;-72
2022/11/30 13:11:37;;;;;;;14.57;7.07;;;7.40;99.90;;;;;;5011944;28;20042;-66
2022/11/30 13:14:08;;;;;;;13.85;7.78;;;7.40;99.90;;;;;;5012272;28;20072;-70
2022/11/30 13:16:35;;;;;;;15.02;7.35;;;7.50;99.90;;;;;;5011281;28;20053;-66